Time;durP1;ratioP1;P1;durP2;ratioP2;P2;SDS_P1;SDS_P2;PMS_P1;PMS_P2;Temp;Humidity;BMP_temperature;BMP_pressure;BME280_temperature;BME280_humidity;BME280_pressure;Samples;Min_cycle;Max_cycle;Signal;HPM_P1;HPM_P2
2022/12/24 00:01:50;;;;;;;8.40;7.40;;;;;;;;;;6235436;23;20147;-78
2022/12/24 00:04:16;;;;;;;11.00;8.03;;;;;;;;;;6240964;22;20143;-79
2022/12/24 00:06:41;;;;;;;11.70;9.43;;;;;;;;;;6241958;23;20151;-79
2022/12/24 00:09:06;;;;;;;9.87;8.60;;;;;;;;;;6238577;23;20507;-77
2022/12/24 00:11:32;;;;;;;11.13;9.23;;;;;;;;;;6240598;23;20151;-77
2022/12/24 00:13:57;;;;;;;12.47;9.37;;;;;;;;;;6238294;23;20179;-77
2022/12/24 00:16:22;;;;;;;8.87;7.63;;;;;;;;;;6235520;22;20178;-77
2022/12/24 00:18:48;;;;;;;10.30;7.97;;;;;;;;;;6238451;23;20162;-79
2022/12/24 00:21:14;;;;;;;10.70;8.03;;;;;;;;;;6235997;23;20214;-77
2022/12/24 00:23:40;;;;;;;9.60;8.20;;;;;;;;;;6238712;22;20147;-77
2022/12/24 00:26:05;;;;;;;9.97;8.27;;;;;;;;;;6238920;22;20848;-78
2022/12/24 00:28:30;;;;;;;10.70;8.53;;;;;;;;;;6237456;23;20194;-78
2022/12/24 00:30:56;;;;;;;9.17;7.30;;;;;;;;;;6235225;23;20162;-77
2022/12/24 00:33:21;;;;;;;9.63;8.10;;;;;;;;;;6238985;23;20504;-77
2022/12/24 00:35:49;;;;;;;10.60;8.43;;;;;;;;;;6241649;22;20159;-78
2022/12/24 00:38:14;;;;;;;8.73;7.83;;;;;;;;;;6243879;22;20139;-78
2022/12/24 00:40:39;;;;;;;10.97;8.67;;;;;;;;;;6246322;22;20384;-78
2022/12/24 00:43:05;;;;;;;11.50;8.50;;;;;;;;;;6242847;23;20151;-78
2022/12/24 00:45:30;;;;;;;9.50;7.67;;;;;;;;;;6242082;22;20179;-77
2022/12/24 00:47:55;;;;;;;9.50;7.53;;;;;;;;;;6243765;23;20158;-78
2022/12/24 00:50:21;;;;;;;9.07;8.13;;;;;;;;;;6245732;23;20143;-77
2022/12/24 00:52:46;;;;;;;9.53;7.77;;;;;;;;;;6245519;23;20665;-78
2022/12/24 00:55:11;;;;;;;9.60;7.77;;;;;;;;;;6241031;22;20214;-78
2022/12/24 00:57:36;;;;;;;10.93;8.80;;;;;;;;;;6244168;23;20140;-77
2022/12/24 01:00:02;;;;;;;11.53;8.37;;;;;;;;;;6243646;23;20421;-77
2022/12/24 01:02:28;;;;;;;11.43;9.00;;;;;;;;;;6244488;22;20143;-78
2022/12/24 01:05:11;;;;;;;12.67;10.13;;;;;;;;;;6244601;22;20386;-78
2022/12/24 01:07:37;;;;;;;11.10;9.17;;;;;;;;;;6241784;23;20146;-78
2022/12/24 01:10:04;;;;;;;14.37;10.10;;;;;;;;;;6243655;22;20362;-77
2022/12/24 01:12:29;;;;;;;12.10;9.93;;;;;;;;;;6242455;22;20370;-78
2022/12/24 01:14:54;;;;;;;13.90;10.63;;;;;;;;;;6242690;22;20422;-78
2022/12/24 01:17:20;;;;;;;15.00;12.23;;;;;;;;;;6239391;23;20530;-78
2022/12/24 01:19:45;;;;;;;14.57;11.47;;;;;;;;;;6239849;23;20217;-77
2022/12/24 01:22:10;;;;;;;16.10;12.80;;;;;;;;;;6239310;23;20143;-78
2022/12/24 01:24:35;;;;;;;15.80;12.30;;;;;;;;;;6240063;22;20178;-78
2022/12/24 01:27:01;;;;;;;14.47;11.53;;;;;;;;;;6240841;23;20773;-78
2022/12/24 01:29:26;;;;;;;17.60;13.30;;;;;;;;;;6236353;23;20269;-77
2022/12/24 01:31:51;;;;;;;16.93;13.17;;;;;;;;;;6238284;22;20158;-78
2022/12/24 01:34:17;;;;;;;17.50;12.57;;;;;;;;;;6235412;22;20575;-67
2022/12/24 01:36:42;;;;;;;16.17;12.77;;;;;;;;;;6240620;22;20158;-67
2022/12/24 01:39:07;;;;;;;16.60;13.10;;;;;;;;;;6242343;22;20145;-67
2022/12/24 01:44:21;;;;;;;16.03;12.10;;;;;;;;;;6248170;22;20206;-68
2022/12/24 01:46:48;;;;;;;15.43;11.47;;;;;;;;;;6237665;23;20383;-67
2022/12/24 01:49:14;;;;;;;15.63;11.70;;;;;;;;;;6239205;23;20775;-67
2022/12/24 01:51:45;;;;;;;17.03;13.17;;;;;;;;;;6240022;23;20424;-68
2022/12/24 01:54:12;;;;;;;16.17;13.00;;;;;;;;;;6241057;22;20744;-70
2022/12/24 01:56:39;;;;;;;16.47;13.23;;;;;;;;;;6239235;23;20483;-68
2022/12/24 01:59:06;;;;;;;14.57;11.13;;;;;;;;;;6240461;23;20436;-67
2022/12/24 02:01:32;;;;;;;14.27;11.53;;;;;;;;;;6238853;23;20437;-67
2022/12/24 02:03:57;;;;;;;14.60;12.10;;;;;;;;;;6240287;22;20393;-68
2022/12/24 02:06:23;;;;;;;13.83;11.00;;;;;;;;;;6239873;23;20147;-68
2022/12/24 02:08:48;;;;;;;12.93;10.77;;;;;;;;;;6213891;23;20151;-68
2022/12/24 02:11:15;;;;;;;13.63;11.43;;;;;;;;;;6240741;23;20151;-69
2022/12/24 02:13:42;;;;;;;14.43;11.27;;;;;;;;;;6183837;23;20191;-69
2022/12/24 02:16:15;;;;;;;16.37;12.60;;;;;;;;;;6212890;23;20366;-68
2022/12/24 02:19:08;;;;;;;14.83;12.40;;;;;;;;;;6235145;23;20362;-67
2022/12/24 02:21:46;;;;;;;14.83;12.50;;;;;;;;;;6236549;23;20354;-67
2022/12/24 02:24:26;;;;;;;13.63;11.13;;;;;;;;;;6235928;22;20389;-69
2022/12/24 02:26:51;;;;;;;15.60;12.27;;;;;;;;;;6236499;23;20449;-67
2022/12/24 02:29:35;;;;;;;14.60;12.53;;;;;;;;;;6235192;23;20398;-68
2022/12/24 02:32:02;;;;;;;13.53;11.43;;;;;;;;;;6237059;23;20205;-67
2022/12/24 02:34:44;;;;;;;14.23;11.73;;;;;;;;;;6235741;22;20654;-67
2022/12/24 02:37:16;;;;;;;13.87;12.13;;;;;;;;;;6236252;23;20397;-67
2022/12/24 02:39:45;;;;;;;12.53;11.23;;;;;;;;;;6236069;23;20680;-67
2022/12/24 02:42:11;;;;;;;12.60;10.87;;;;;;;;;;6238072;23;20434;-67
2022/12/24 02:44:40;;;;;;;14.30;11.83;;;;;;;;;;6211857;23;20737;-67
2022/12/24 02:47:07;;;;;;;14.90;11.90;;;;;;;;;;6231702;22;20409;-67
2022/12/24 02:49:33;;;;;;;16.40;12.10;;;;;;;;;;6237849;23;20370;-67
2022/12/24 02:51:58;;;;;;;14.20;12.17;;;;;;;;;;6238762;23;20397;-67
2022/12/24 02:54:24;;;;;;;13.60;11.23;;;;;;;;;;6240386;22;20422;-67
2022/12/24 02:56:53;;;;;;;13.80;11.03;;;;;;;;;;6240337;23;20628;-67
2022/12/24 02:59:49;;;;;;;12.03;10.50;;;;;;;;;;6238630;23;20150;-67
2022/12/24 03:02:25;;;;;;;11.50;10.17;;;;;;;;;;6239649;23;20357;-67
2022/12/24 03:04:56;;;;;;;13.13;9.77;;;;;;;;;;6239173;22;20385;-67
2022/12/24 03:07:22;;;;;;;11.00;9.80;;;;;;;;;;6240498;23;20864;-67
2022/12/24 03:09:50;;;;;;;14.00;11.53;;;;;;;;;;6240029;23;20366;-68
2022/12/24 03:12:19;;;;;;;11.53;10.33;;;;;;;;;;6238849;23;20155;-67
2022/12/24 03:14:46;;;;;;;12.10;10.73;;;;;;;;;;6237664;22;20426;-67
2022/12/24 03:17:14;;;;;;;11.73;10.53;;;;;;;;;;6242930;23;20370;-67
2022/12/24 03:19:39;;;;;;;12.40;11.10;;;;;;;;;;6241105;23;20369;-67
2022/12/24 03:22:07;;;;;;;12.10;10.80;;;;;;;;;;6240374;23;20776;-67
2022/12/24 03:24:32;;;;;;;12.57;10.63;;;;;;;;;;6236488;22;20508;-67
2022/12/24 03:26:58;;;;;;;11.77;10.20;;;;;;;;;;6239101;23;20401;-67
2022/12/24 03:29:24;;;;;;;12.73;11.00;;;;;;;;;;6238613;23;20150;-67
2022/12/24 03:31:51;;;;;;;11.67;10.23;;;;;;;;;;6237672;23;20396;-67
2022/12/24 03:34:17;;;;;;;12.93;11.57;;;;;;;;;;6238294;22;20187;-67
2022/12/24 03:36:42;;;;;;;13.13;11.77;;;;;;;;;;6236783;22;20369;-67
2022/12/24 03:39:08;;;;;;;14.30;11.03;;;;;;;;;;6235402;23;20415;-67
2022/12/24 03:41:33;;;;;;;10.73;9.63;;;;;;;;;;6238259;23;20154;-67
2022/12/24 03:43:59;;;;;;;10.50;9.40;;;;;;;;;;6212185;23;20614;-68
2022/12/24 03:46:24;;;;;;;10.53;9.43;;;;;;;;;;6213634;23;20174;-67
2022/12/24 03:48:49;;;;;;;11.67;10.47;;;;;;;;;;6240124;23;20218;-67
2022/12/24 03:51:22;;;;;;;11.60;10.10;;;;;;;;;;6235499;23;20467;-67
2022/12/24 03:53:48;;;;;;;10.70;9.60;;;;;;;;;;6239297;22;20171;-67
2022/12/24 03:56:13;;;;;;;10.40;9.30;;;;;;;;;;6236587;23;20362;-66
2022/12/24 03:58:38;;;;;;;10.30;9.20;;;;;;;;;;6210926;23;20155;-67
2022/12/24 04:01:04;;;;;;;10.03;9.03;;;;;;;;;;6236204;23;20139;-67
2022/12/24 04:03:29;;;;;;;11.63;9.57;;;;;;;;;;6240647;22;20666;-67
2022/12/24 04:06:01;;;;;;;10.93;9.83;;;;;;;;;;6212683;23;20591;-67
2022/12/24 04:08:26;;;;;;;10.23;9.10;;;;;;;;;;6210561;23;20155;-67
2022/12/24 04:10:51;;;;;;;9.60;8.70;;;;;;;;;;6239586;23;20920;-67
2022/12/24 04:13:17;;;;;;;11.57;10.33;;;;;;;;;;6238375;22;20174;-67
2022/12/24 04:15:42;;;;;;;11.50;10.40;;;;;;;;;;6239263;23;20151;-67
2022/12/24 04:18:07;;;;;;;10.63;9.60;;;;;;;;;;6239106;23;20178;-67
2022/12/24 04:20:32;;;;;;;11.23;10.13;;;;;;;;;;6238139;23;20468;-67
2022/12/24 04:22:58;;;;;;;10.73;9.73;;;;;;;;;;6238651;22;20226;-66
2022/12/24 04:25:23;;;;;;;11.97;9.47;;;;;;;;;;6237584;23;20139;-67
2022/12/24 04:27:48;;;;;;;11.53;10.40;;;;;;;;;;6239129;23;20147;-67
2022/12/24 04:30:13;;;;;;;9.80;8.80;;;;;;;;;;6237912;23;20149;-67
2022/12/24 04:32:39;;;;;;;10.87;9.80;;;;;;;;;;6210504;23;20594;-67
2022/12/24 04:35:04;;;;;;;10.50;9.40;;;;;;;;;;6210281;23;20285;-67
2022/12/24 04:37:29;;;;;;;12.67;11.43;;;;;;;;;;6210325;23;20151;-66
2022/12/24 04:39:55;;;;;;;11.73;10.53;;;;;;;;;;6236968;23;20144;-66
2022/12/24 04:42:20;;;;;;;11.00;9.90;;;;;;;;;;6239495;23;20139;-67
2022/12/24 04:44:45;;;;;;;11.90;10.77;;;;;;;;;;6237549;22;20225;-67
2022/12/24 04:47:10;;;;;;;12.03;10.80;;;;;;;;;;6236616;23;20151;-67
2022/12/24 04:49:36;;;;;;;12.40;11.20;;;;;;;;;;6237355;23;20629;-67
2022/12/24 04:52:01;;;;;;;11.50;10.30;;;;;;;;;;6239130;23;20206;-67
2022/12/24 04:54:26;;;;;;;12.77;11.60;;;;;;;;;;6240800;22;20175;-67
2022/12/24 04:56:51;;;;;;;12.03;10.83;;;;;;;;;;6239213;23;20152;-66
2022/12/24 04:59:17;;;;;;;12.23;10.93;;;;;;;;;;6239986;23;20155;-66
2022/12/24 05:01:42;;;;;;;15.33;12.13;;;;;;;;;;6238904;22;20814;-67
2022/12/24 05:04:07;;;;;;;12.40;11.20;;;;;;;;;;6239838;22;20214;-67
2022/12/24 05:06:33;;;;;;;13.60;12.20;;;;;;;;;;6238940;23;20147;-67
2022/12/24 05:08:58;;;;;;;13.37;12.07;;;;;;;;;;6240307;23;20645;-66
2022/12/24 05:11:24;;;;;;;15.23;13.63;;;;;;;;;;6238436;23;20147;-67
2022/12/24 05:13:49;;;;;;;15.70;13.77;;;;;;;;;;6241492;22;20210;-66
2022/12/24 05:16:16;;;;;;;15.77;14.00;;;;;;;;;;6239286;23;20154;-66
2022/12/24 05:18:41;;;;;;;15.97;14.30;;;;;;;;;;6237212;23;20147;-66
2022/12/24 05:21:10;;;;;;;17.00;15.27;;;;;;;;;;6236093;22;20429;-67
2022/12/24 05:26:31;;;;;;;17.17;15.37;;;;;;;;;;6235561;23;20733;-67
2022/12/24 05:28:57;;;;;;;15.93;14.33;;;;;;;;;;6234809;23;20393;-67
2022/12/24 05:31:23;;;;;;;16.20;14.60;;;;;;;;;;6234146;23;20638;-67
2022/12/24 05:33:48;;;;;;;17.77;15.07;;;;;;;;;;6232356;23;20441;-68
2022/12/24 05:36:14;;;;;;;18.93;15.20;;;;;;;;;;6236437;23;20370;-68
2022/12/24 05:38:39;;;;;;;14.43;12.90;;;;;;;;;;6232927;22;20155;-67
2022/12/24 05:41:05;;;;;;;18.00;14.80;;;;;;;;;;6236415;23;20757;-68
2022/12/24 05:43:31;;;;;;;18.70;14.13;;;;;;;;;;6234711;22;20938;-68
2022/12/24 05:45:59;;;;;;;19.43;16.10;;;;;;;;;;6239002;23;20442;-68
2022/12/24 05:48:24;;;;;;;16.80;15.00;;;;;;;;;;6234601;22;20162;-68
2022/12/24 05:50:50;;;;;;;18.10;14.33;;;;;;;;;;6209267;23;20382;-67
2022/12/24 05:53:15;;;;;;;17.10;14.80;;;;;;;;;;6234481;22;20626;-68
2022/12/24 05:55:40;;;;;;;17.50;14.37;;;;;;;;;;6238210;23;20140;-68
2022/12/24 05:58:05;;;;;;;17.17;14.47;;;;;;;;;;6236563;23;20323;-67
2022/12/24 06:00:31;;;;;;;17.30;15.13;;;;;;;;;;6237581;23;20139;-68
2022/12/24 06:02:56;;;;;;;15.97;14.27;;;;;;;;;;6210518;22;20642;-68
2022/12/24 06:05:21;;;;;;;19.50;14.30;;;;;;;;;;6237956;23;20143;-68
2022/12/24 06:07:47;;;;;;;16.40;13.70;;;;;;;;;;6235275;23;20226;-67
2022/12/24 06:10:12;;;;;;;16.00;13.20;;;;;;;;;;6234371;22;20151;-68
2022/12/24 06:12:37;;;;;;;20.43;13.77;;;;;;;;;;6237392;23;20251;-68
2022/12/24 06:15:03;;;;;;;15.90;13.97;;;;;;;;;;6211255;23;20625;-67
2022/12/24 06:17:28;;;;;;;16.50;12.63;;;;;;;;;;6235354;23;20143;-67
2022/12/24 06:19:53;;;;;;;16.03;11.80;;;;;;;;;;6237446;23;20171;-67
2022/12/24 06:22:18;;;;;;;19.57;11.37;;;;;;;;;;6236077;23;20143;-68
2022/12/24 06:24:44;;;;;;;15.30;10.00;;;;;;;;;;6210144;23;20770;-68
2022/12/24 06:27:09;;;;;;;21.27;10.43;;;;;;;;;;6210824;23;20158;-68
2022/12/24 06:29:34;;;;;;;16.20;8.87;;;;;;;;;;6207663;23;20275;-68
2022/12/24 06:32:00;;;;;;;19.00;9.83;;;;;;;;;;6237815;23;20154;-68
2022/12/24 06:34:25;;;;;;;17.47;7.43;;;;;;;;;;6230914;22;20182;-67
2022/12/24 06:36:50;;;;;;;13.47;6.70;;;;;;;;;;6232681;23;20570;-68
2022/12/24 06:39:17;;;;;;;15.90;7.40;;;;;;;;;;6232830;23;20175;-67
2022/12/24 06:41:42;;;;;;;17.40;6.10;;;;;;;;;;6208113;23;20388;-68
2022/12/24 06:44:07;;;;;;;16.90;6.90;;;;;;;;;;6236363;22;20506;-68
2022/12/24 06:46:33;;;;;;;32.60;7.07;;;;;;;;;;6237432;23;20154;-68
2022/12/24 06:48:58;;;;;;;25.83;5.70;;;;;;;;;;6238388;23;20158;-68
2022/12/24 06:51:23;;;;;;;23.97;5.73;;;;;;;;;;6239295;23;20146;-68
2022/12/24 06:53:52;;;;;;;17.77;5.27;;;;;;;;;;6210770;23;20186;-68
2022/12/24 06:56:18;;;;;;;29.60;7.10;;;;;;;;;;6213039;23;20574;-68
2022/12/24 06:58:43;;;;;;;19.80;4.50;;;;;;;;;;6212049;23;20417;-68
2022/12/24 07:01:10;;;;;;;33.27;5.90;;;;;;;;;;6238458;23;20358;-68
2022/12/24 07:03:35;;;;;;;22.07;4.97;;;;;;;;;;6211846;23;20174;-68
2022/12/24 07:06:00;;;;;;;20.93;5.70;;;;;;;;;;6237978;23;20420;-68
2022/12/24 07:08:26;;;;;;;22.43;5.63;;;;;;;;;;6212496;23;20155;-67
2022/12/24 07:10:51;;;;;;;26.57;5.47;;;;;;;;;;6210849;23;20209;-68
2022/12/24 07:13:17;;;;;;;27.07;6.57;;;;;;;;;;6211022;23;20179;-68
2022/12/24 07:15:42;;;;;;;28.70;5.70;;;;;;;;;;6239079;23;20145;-68
2022/12/24 07:18:08;;;;;;;29.90;7.00;;;;;;;;;;6212683;23;20711;-68
2022/12/24 07:20:33;;;;;;;27.70;6.13;;;;;;;;;;6238653;23;20151;-68
2022/12/24 07:22:59;;;;;;;26.67;5.37;;;;;;;;;;6209257;22;20538;-68
2022/12/24 07:25:24;;;;;;;25.37;6.90;;;;;;;;;;6210465;23;20652;-68
2022/12/24 07:27:49;;;;;;;27.37;6.13;;;;;;;;;;6208798;23;20155;-68
2022/12/24 07:30:15;;;;;;;37.13;7.37;;;;;;;;;;6235285;23;20146;-68
2022/12/24 07:32:40;;;;;;;31.73;6.40;;;;;;;;;;6234634;23;20808;-68
2022/12/24 07:35:06;;;;;;;36.53;6.10;;;;;;;;;;6233428;22;20275;-68
2022/12/24 07:37:31;;;;;;;28.90;7.00;;;;;;;;;;6235369;23;20184;-68
2022/12/24 07:39:56;;;;;;;33.67;7.10;;;;;;;;;;6237511;23;20152;-68
2022/12/24 07:42:21;;;;;;;25.70;6.23;;;;;;;;;;6237615;23;20139;-68
2022/12/24 07:44:47;;;;;;;36.40;6.17;;;;;;;;;;6238426;22;20170;-67
2022/12/24 07:47:12;;;;;;;34.53;5.50;;;;;;;;;;6239648;23;20679;-68
2022/12/24 07:49:37;;;;;;;35.57;7.33;;;;;;;;;;6237928;23;20151;-68
2022/12/24 07:52:03;;;;;;;28.77;6.50;;;;;;;;;;6239764;23;20656;-68
2022/12/24 07:54:28;;;;;;;28.37;6.43;;;;;;;;;;6237869;22;20262;-68
2022/12/24 07:56:53;;;;;;;28.70;6.30;;;;;;;;;;6275210;22;20198;-79
2022/12/24 07:59:19;;;;;;;37.33;7.27;;;;;;;;;;6273425;22;20203;-77
2022/12/24 08:01:45;;;;;;;27.47;6.87;;;;;;;;;;6301318;22;20153;-77
2022/12/24 08:04:10;;;;;;;31.53;7.00;;;;;;;;;;6305989;22;20150;-77
2022/12/24 08:06:35;;;;;;;26.27;6.93;;;;;;;;;;6287570;22;20381;-77
2022/12/24 08:09:01;;;;;;;28.30;7.13;;;;;;;;;;6274818;22;20145;-78
2022/12/24 08:11:26;;;;;;;30.67;7.30;;;;;;;;;;6273924;22;20493;-78
2022/12/24 08:13:52;;;;;;;39.53;7.83;;;;;;;;;;6247749;22;20171;-78
2022/12/24 08:16:17;;;;;;;30.70;7.07;;;;;;;;;;6267549;22;20158;-78
2022/12/24 08:18:42;;;;;;;37.03;6.43;;;;;;;;;;6271317;22;20710;-78
2022/12/24 08:21:08;;;;;;;42.53;10.67;;;;;;;;;;6271094;22;20526;-78
2022/12/24 08:23:34;;;;;;;24.17;6.47;;;;;;;;;;6270834;22;20153;-79
2022/12/24 08:25:59;;;;;;;28.10;6.27;;;;;;;;;;6239964;22;20987;-78
2022/12/24 08:28:24;;;;;;;30.13;6.00;;;;;;;;;;6271905;22;20535;-78
2022/12/24 08:30:50;;;;;;;25.60;5.80;;;;;;;;;;6269959;22;20204;-78
2022/12/24 08:33:15;;;;;;;28.93;6.53;;;;;;;;;;6273485;22;20155;-78
2022/12/24 08:35:45;;;;;;;35.17;6.33;;;;;;;;;;6271533;22;20159;-78
2022/12/24 08:38:11;;;;;;;32.83;6.70;;;;;;;;;;6276259;22;20220;-77
2022/12/24 08:40:36;;;;;;;28.87;6.67;;;;;;;;;;6272623;22;20848;-78
2022/12/24 08:46:08;;;;;;;29.70;7.00;;;;;;;;;;6238302;22;20253;-79
2022/12/24 08:48:35;;;;;;;31.37;6.20;;;;;;;;;;6267574;22;20357;-79
2022/12/24 08:51:04;;;;;;;32.63;6.63;;;;;;;;;;6274230;22;20453;-79
2022/12/24 08:53:29;;;;;;;28.93;6.30;;;;;;;;;;6280882;22;20409;-81
2022/12/24 08:56:00;;;;;;;26.40;6.50;;;;;;;;;;6284327;22;20559;-80
2022/12/24 08:58:25;;;;;;;19.33;4.90;;;;;;;;;;6268324;22;20468;-81
2022/12/24 09:00:50;;;;;;;22.03;6.50;;;;;;;;;;6289022;22;20361;-81
2022/12/24 09:03:16;;;;;;;28.50;6.50;;;;;;;;;;6282751;22;20149;-80
2022/12/24 09:05:41;;;;;;;24.00;5.93;;;;;;;;;;6278279;22;20158;-80
2022/12/24 09:08:06;;;;;;;36.43;7.03;;;;;;;;;;6254278;22;20151;-79
2022/12/24 09:10:31;;;;;;;32.80;6.80;;;;;;;;;;6272675;22;20143;-80
2022/12/24 09:12:57;;;;;;;25.40;5.83;;;;;;;;;;6275975;22;20186;-80
2022/12/24 09:15:22;;;;;;;24.03;6.70;;;;;;;;;;6256863;22;20171;-80
2022/12/24 09:17:47;;;;;;;24.47;6.20;;;;;;;;;;6288663;22;20168;-81
2022/12/24 09:20:13;;;;;;;21.80;6.33;;;;;;;;;;6254226;22;20178;-79
2022/12/24 09:22:39;;;;;;;26.67;5.83;;;;;;;;;;6273408;22;20147;-81
2022/12/24 09:25:09;;;;;;;26.50;5.97;;;;;;;;;;6253131;22;20150;-81
2022/12/24 09:27:35;;;;;;;38.40;7.20;;;;;;;;;;6285192;22;20143;-82
2022/12/24 09:30:00;;;;;;;26.63;5.53;;;;;;;;;;6290369;22;20441;-81
2022/12/24 09:32:26;;;;;;;31.43;5.70;;;;;;;;;;6287724;22;20369;-82
2022/12/24 09:34:51;;;;;;;37.30;7.00;;;;;;;;;;6282776;22;20166;-78
2022/12/24 09:37:16;;;;;;;25.43;5.90;;;;;;;;;;6281871;22;20166;-79
2022/12/24 09:39:42;;;;;;;39.23;7.80;;;;;;;;;;6274864;22;20647;-82
2022/12/24 09:42:07;;;;;;;38.10;7.20;;;;;;;;;;6282786;22;20230;-80
2022/12/24 09:44:32;;;;;;;27.53;6.20;;;;;;;;;;6283666;22;20142;-80
2022/12/24 09:46:59;;;;;;;31.67;6.30;;;;;;;;;;6289572;22;20642;-81
2022/12/24 09:49:28;;;;;;;27.10;5.90;;;;;;;;;;6283166;22;20142;-80
2022/12/24 09:52:00;;;;;;;26.03;5.83;;;;;;;;;;6260154;22;20402;-81
2022/12/24 09:54:30;;;;;;;27.37;6.10;;;;;;;;;;6260612;22;20796;-82
2022/12/24 09:56:57;;;;;;;35.10;6.50;;;;;;;;;;6260568;22;20469;-80
2022/12/24 09:59:24;;;;;;;39.07;6.80;;;;;;;;;;6254135;22;20515;-78
2022/12/24 10:01:51;;;;;;;23.73;6.03;;;;;;;;;;6277337;22;20675;-79
2022/12/24 10:04:17;;;;;;;24.27;5.90;;;;;;;;;;6280578;22;20365;-82
2022/12/24 10:06:49;;;;;;;27.80;6.00;;;;;;;;;;6268215;22;20426;-83
2022/12/24 10:09:17;;;;;;;29.10;6.17;;;;;;;;;;6290637;22;20428;-83
2022/12/24 10:11:49;;;;;;;32.63;6.10;;;;;;;;;;6285828;22;20365;-82
2022/12/24 10:14:17;;;;;;;34.03;7.60;;;;;;;;;;6292313;22;20401;-81
2022/12/24 10:16:50;;;;;;;32.40;6.40;;;;;;;;;;6257218;22;20448;-81
2022/12/24 10:19:34;;;;;;;25.00;5.70;;;;;;;;;;6288030;22;20358;-79
2022/12/24 10:22:06;;;;;;;31.33;6.60;;;;;;;;;;6263455;22;20384;-85
2022/12/24 10:24:45;;;;;;;26.63;5.80;;;;;;;;;;6263228;22;20369;-84
2022/12/24 10:27:13;;;;;;;40.50;7.20;;;;;;;;;;6264006;22;20403;-84
2022/12/24 10:29:45;;;;;;;27.20;7.27;;;;;;;;;;6292157;22;20907;-84
2022/12/24 10:32:21;;;;;;;23.87;6.07;;;;;;;;;;6266294;22;20372;-83
2022/12/24 10:34:55;;;;;;;28.53;7.20;;;;;;;;;;6291011;22;20405;-84
2022/12/24 10:37:24;;;;;;;38.93;8.70;;;;;;;;;;6261159;22;20756;-83
2022/12/24 10:39:50;;;;;;;25.97;6.23;;;;;;;;;;6291544;22;20361;-84
2022/12/24 10:42:16;;;;;;;35.57;7.43;;;;;;;;;;6290958;22;20377;-85
2022/12/24 10:44:44;;;;;;;26.57;6.23;;;;;;;;;;6288147;22;20408;-84
2022/12/24 10:47:10;;;;;;;30.07;6.63;;;;;;;;;;6263923;22;20566;-85
2022/12/24 10:52:16;;;;;;;28.67;6.23;;;;;;;;;;6316029;22;20423;-80
2022/12/24 10:55:00;;;;;;;33.70;6.97;;;;;;;;;;6295174;22;21072;-79
2022/12/24 10:57:26;;;;;;;34.30;7.30;;;;;;;;;;6331818;22;20360;-84
2022/12/24 10:59:52;;;;;;;33.00;6.77;;;;;;;;;;6330350;22;20407;-85
2022/12/24 11:05:46;;;;;;;31.77;7.40;;;;;;;;;;6310119;22;20447;-82
2022/12/24 11:08:16;;;;;;;41.80;7.73;;;;;;;;;;6169102;23;20387;-80
2022/12/24 11:10:43;;;;;;;42.40;9.47;;;;;;;;;;6171009;23;20361;-81
2022/12/24 11:13:21;;;;;;;29.67;6.50;;;;;;;;;;6239927;22;20393;-83
2022/12/24 11:15:58;;;;;;;35.93;9.97;;;;;;;;;;6273418;22;20355;-83
2022/12/24 11:18:23;;;;;;;23.83;7.63;;;;;;;;;;6301713;22;20412;-83
2022/12/24 11:20:51;;;;;;;32.43;8.27;;;;;;;;;;6300561;22;20356;-83
2022/12/24 11:23:17;;;;;;;31.17;7.80;;;;;;;;;;6274360;22;20178;-82
2022/12/24 11:25:46;;;;;;;33.47;7.40;;;;;;;;;;6300972;22;20357;-83
2022/12/24 11:28:18;;;;;;;27.23;6.80;;;;;;;;;;6302030;22;20126;-84
2022/12/24 11:30:54;;;;;;;37.53;8.13;;;;;;;;;;6302425;22;20346;-83
2022/12/24 11:33:20;;;;;;;29.03;6.27;;;;;;;;;;6276068;22;20389;-83
2022/12/24 11:35:47;;;;;;;27.37;5.90;;;;;;;;;;6301848;22;20393;-80
2022/12/24 11:38:18;;;;;;;30.63;6.57;;;;;;;;;;6277660;22;20380;-82
2022/12/24 11:40:44;;;;;;;26.43;6.47;;;;;;;;;;6276364;22;20424;-84
2022/12/24 11:43:43;;;;;;;30.93;6.13;;;;;;;;;;6304881;22;20432;-83
2022/12/24 11:46:17;;;;;;;23.17;6.30;;;;;;;;;;6303176;22;20361;-84
2022/12/24 11:48:43;;;;;;;27.00;5.70;;;;;;;;;;6303601;22;20417;-84
2022/12/24 11:51:25;;;;;;;32.17;6.57;;;;;;;;;;6303654;22;20360;-83
2022/12/24 11:54:01;;;;;;;26.93;5.83;;;;;;;;;;6303891;22;20193;-82
2022/12/24 11:56:41;;;;;;;28.17;5.90;;;;;;;;;;6277670;22;20358;-82
2022/12/24 11:59:25;;;;;;;29.53;6.57;;;;;;;;;;6303537;22;20404;-82
2022/12/24 12:01:57;;;;;;;20.73;5.90;;;;;;;;;;6278174;22;20369;-83
2022/12/24 12:04:30;;;;;;;22.80;6.57;;;;;;;;;;6303871;22;20440;-81
2022/12/24 12:07:00;;;;;;;23.70;6.10;;;;;;;;;;6302992;22;20381;-82
2022/12/24 12:09:38;;;;;;;27.60;6.97;;;;;;;;;;6303144;22;20389;-83
2022/12/24 12:12:11;;;;;;;23.77;7.00;;;;;;;;;;6277574;22;20703;-84
2022/12/24 12:14:40;;;;;;;25.93;5.30;;;;;;;;;;6303564;22;20407;-83
2022/12/24 12:17:13;;;;;;;27.67;6.47;;;;;;;;;;6303974;22;20349;-81
2022/12/24 12:19:38;;;;;;;22.93;5.50;;;;;;;;;;6277515;22;20396;-83
2022/12/24 12:22:06;;;;;;;31.13;7.13;;;;;;;;;;6275688;22;20366;-83
2022/12/24 12:24:43;;;;;;;29.60;6.40;;;;;;;;;;6303613;22;20193;-82
2022/12/24 12:27:27;;;;;;;24.67;4.70;;;;;;;;;;6303252;22;20372;-81
2022/12/24 12:30:02;;;;;;;23.50;5.80;;;;;;;;;;6277350;22;20393;-82
2022/12/24 12:32:35;;;;;;;26.40;5.67;;;;;;;;;;6303326;22;20384;-83
2022/12/24 12:35:04;;;;;;;24.97;5.10;;;;;;;;;;6275900;22;20413;-82
2022/12/24 12:37:35;;;;;;;22.57;5.77;;;;;;;;;;6303269;22;20361;-84
2022/12/24 12:40:11;;;;;;;18.80;4.43;;;;;;;;;;6303200;22;20382;-84
2022/12/24 12:42:38;;;;;;;22.13;5.30;;;;;;;;;;6303461;22;20345;-83
2022/12/24 12:45:26;;;;;;;19.73;5.10;;;;;;;;;;6303292;22;20357;-83
2022/12/24 12:47:54;;;;;;;27.00;5.43;;;;;;;;;;6276291;22;20497;-83
2022/12/24 12:50:32;;;;;;;21.73;5.07;;;;;;;;;;6276772;22;20424;-83
2022/12/24 12:53:13;;;;;;;22.17;4.43;;;;;;;;;;6303582;22;20353;-82
2022/12/24 12:55:50;;;;;;;11.73;4.13;;;;;;;;;;6276840;22;20381;-81
2022/12/24 12:58:20;;;;;;;25.30;5.63;;;;;;;;;;6276258;22;20356;-82
2022/12/24 13:00:48;;;;;;;22.33;6.13;;;;;;;;;;6303053;22;20366;-81
2022/12/24 13:03:32;;;;;;;21.30;4.90;;;;;;;;;;6300412;22;20353;-83
2022/12/24 13:05:57;;;;;;;13.93;4.43;;;;;;;;;;6276427;22;20392;-82
2022/12/24 13:08:28;;;;;;;17.90;4.30;;;;;;;;;;6302379;22;20380;-81
2022/12/24 13:11:02;;;;;;;19.13;4.33;;;;;;;;;;6274449;22;20150;-78
2022/12/24 13:13:46;;;;;;;18.47;4.43;;;;;;;;;;6302972;22;20330;-82
2022/12/24 13:16:21;;;;;;;13.77;4.23;;;;;;;;;;6276223;22;20442;-82
2022/12/24 13:19:05;;;;;;;34.67;5.67;;;;;;;;;;6276218;22;20395;-81
2022/12/24 13:21:31;;;;;;;16.60;4.00;;;;;;;;;;6301908;22;20372;-82
2022/12/24 13:24:16;;;;;;;20.93;3.77;;;;;;;;;;6276450;22;20400;-79
2022/12/24 13:26:58;;;;;;;18.33;4.47;;;;;;;;;;6303607;22;20337;-82
2022/12/24 13:29:30;;;;;;;13.20;3.80;;;;;;;;;;6303577;22;20393;-82
2022/12/24 13:32:18;;;;;;;22.00;4.30;;;;;;;;;;6274855;22;20440;-80
2022/12/24 13:34:50;;;;;;;17.00;3.70;;;;;;;;;;6301773;22;20444;-81
2022/12/24 13:37:41;;;;;;;13.23;4.30;;;;;;;;;;6303114;22;20349;-82
2022/12/24 13:40:07;;;;;;;23.43;4.13;;;;;;;;;;6295989;22;20389;-82
2022/12/24 13:42:44;;;;;;;12.13;4.00;;;;;;;;;;6276413;22;20388;-82
2022/12/24 13:45:28;;;;;;;19.07;4.30;;;;;;;;;;6277191;22;20466;-82
2022/12/24 13:47:59;;;;;;;14.73;3.70;;;;;;;;;;6277110;22;20385;-83
2022/12/24 13:50:33;;;;;;;15.70;2.97;;;;;;;;;;6274617;22;20432;-81
2022/12/24 13:52:59;;;;;;;18.93;3.90;;;;;;;;;;6275691;22;20358;-80
2022/12/24 13:55:24;;;;;;;14.53;4.03;;;;;;;;;;6302937;22;20408;-82
2022/12/24 13:57:57;;;;;;;12.80;3.10;;;;;;;;;;6231258;22;20200;-68
2022/12/24 14:00:28;;;;;;;17.13;3.40;;;;;;;;;;6179909;23;20591;-70
2022/12/24 14:02:56;;;;;;;19.27;3.50;;;;;;;;;;6178538;23;20384;-67
2022/12/24 14:05:38;;;;;;;14.93;3.73;;;;;;;;;;6181286;23;20375;-70
2022/12/24 14:08:05;;;;;;;12.30;3.07;;;;;;;;;;6163776;23;20392;-67
2022/12/24 14:10:35;;;;;;;14.33;3.70;;;;;;;;;;6149931;23;20380;-68
2022/12/24 14:13:01;;;;;;;17.03;3.90;;;;;;;;;;6150978;23;20377;-68
2022/12/24 14:15:45;;;;;;;18.03;4.10;;;;;;;;;;6150915;23;20419;-67
2022/12/24 14:18:15;;;;;;;16.03;3.83;;;;;;;;;;6151488;23;20172;-68
2022/12/24 14:20:41;;;;;;;17.87;3.83;;;;;;;;;;6149039;23;20364;-68
2022/12/24 14:23:14;;;;;;;14.63;3.53;;;;;;;;;;6149875;23;20421;-68
2022/12/24 14:25:40;;;;;;;17.53;3.97;;;;;;;;;;6151598;23;20148;-68
2022/12/24 14:28:12;;;;;;;18.50;3.47;;;;;;;;;;6150875;23;20420;-68
2022/12/24 14:30:37;;;;;;;15.27;3.53;;;;;;;;;;6150320;23;20365;-68
2022/12/24 14:33:04;;;;;;;23.23;5.53;;;;;;;;;;6150785;23;20377;-67
2022/12/24 14:35:38;;;;;;;23.43;4.20;;;;;;;;;;6150563;23;20172;-68
2022/12/24 14:38:05;;;;;;;17.83;4.37;;;;;;;;;;6150368;23;20392;-68
2022/12/24 14:40:32;;;;;;;22.67;4.77;;;;;;;;;;6151494;23;20369;-67
2022/12/24 14:43:05;;;;;;;11.47;3.80;;;;;;;;;;6150752;23;20392;-67
2022/12/24 14:45:30;;;;;;;17.53;4.53;;;;;;;;;;6151449;23;20372;-67
2022/12/24 14:48:01;;;;;;;14.63;3.87;;;;;;;;;;6149681;23;20400;-67